createdAt,value
2017-02-12T00:00:45.039Z,1018.24
2017-02-12T00:01:56.492Z,1018.29
2017-02-12T00:03:07.894Z,1018.34
2017-02-12T00:04:19.504Z,1018.31
2017-02-12T00:05:30.904Z,1018.37
2017-02-12T00:06:42.302Z,1018.31
2017-02-12T00:07:53.695Z,1018.28
2017-02-12T00:09:05.088Z,1018.35
2017-02-12T00:10:16.695Z,1018.42
2017-02-12T00:11:28.151Z,1018.37
2017-02-12T00:12:39.554Z,1018.3
2017-02-12T00:13:50.954Z,1018.26
2017-02-12T00:15:02.361Z,1018.25
2017-02-12T00:16:13.768Z,1018.22
2017-02-12T00:17:25.377Z,1018.23
2017-02-12T00:18:36.991Z,1018.25
2017-02-12T00:19:48.597Z,1018.26
2017-02-12T00:21:00.003Z,1018.28
2017-02-12T00:22:11.445Z,1018.29
2017-02-12T00:23:23.045Z,1018.39
2017-02-12T00:24:34.443Z,1018.3
2017-02-12T00:25:45.843Z,1018.35
2017-02-12T00:26:57.248Z,1018.31
2017-02-12T00:28:08.902Z,1018.34
2017-02-12T00:29:20.988Z,1018.35
2017-02-12T00:30:32.391Z,1018.35
2017-02-12T00:31:43.787Z,1018.38
2017-02-12T00:32:55.196Z,1018.36
2017-02-12T00:34:06.649Z,1018.36
2017-02-12T00:35:18.038Z,1018.35
2017-02-12T00:36:29.438Z,1018.35
2017-02-12T00:37:41.039Z,1018.4
2017-02-12T00:38:52.449Z,1018.44
2017-02-12T00:40:03.920Z,1018.51
2017-02-12T00:41:15.515Z,1018.54
2017-02-12T00:42:26.914Z,1018.57
2017-02-12T00:43:38.314Z,1018.56
2017-02-12T00:44:49.718Z,1018.58
2017-02-12T00:46:01.167Z,1018.62
2017-02-12T00:47:12.768Z,1018.58
2017-02-12T00:48:24.175Z,1018.51
2017-02-12T00:49:35.578Z,1018.51
2017-02-12T00:50:46.978Z,1018.46
2017-02-12T00:51:58.431Z,1018.49
2017-02-12T00:53:09.834Z,1018.56
2017-02-12T00:54:21.245Z,1018.5
2017-02-12T00:55:32.854Z,1018.48
2017-02-12T00:56:44.263Z,1018.49
2017-02-12T00:57:55.715Z,1018.48
2017-02-12T00:59:07.115Z,1018.49
2017-02-12T01:00:18.732Z,1018.48
2017-02-12T01:01:30.124Z,1018.43
2017-02-12T01:02:41.729Z,1018.43
2017-02-12T01:03:53.188Z,1018.48
2017-02-12T01:05:04.994Z,1018.5
2017-02-12T01:06:16.391Z,1018.49
2017-02-12T01:07:27.995Z,1018.52
2017-02-12T01:08:39.442Z,1018.58
2017-02-12T01:09:50.893Z,1018.53
2017-02-12T01:11:02.296Z,1018.62
2017-02-12T01:12:13.703Z,1018.59
2017-02-12T01:13:25.103Z,1018.54
2017-02-12T01:14:36.504Z,1018.58
2017-02-12T01:15:47.909Z,1018.54
2017-02-12T01:16:59.310Z,1018.53
2017-02-12T01:18:10.725Z,1018.49
2017-02-12T01:19:22.136Z,1018.52
2017-02-12T01:20:33.787Z,1018.54
2017-02-12T01:21:45.200Z,1018.53
2017-02-12T01:22:56.603Z,1018.57
2017-02-12T01:24:08.003Z,1018.57
2017-02-12T01:25:19.605Z,1018.57
2017-02-12T01:26:31.007Z,1018.6
2017-02-12T01:27:42.620Z,1018.55
2017-02-12T01:28:54.229Z,1018.55
2017-02-12T01:30:05.829Z,1018.54
2017-02-12T01:31:17.280Z,1018.55
2017-02-12T01:32:28.685Z,1018.58
2017-02-12T01:33:40.080Z,1018.58
2017-02-12T01:34:51.477Z,1018.64
2017-02-12T01:36:03.082Z,1018.67
2017-02-12T01:37:14.484Z,1018.67
2017-02-12T01:38:25.891Z,1018.79
2017-02-12T01:39:37.525Z,1018.8
2017-02-12T01:40:48.925Z,1018.82
2017-02-12T01:42:00.336Z,1018.81
2017-02-12T01:43:11.789Z,1018.76
2017-02-12T01:44:23.186Z,1018.77
2017-02-12T01:45:34.591Z,1018.72
2017-02-12T01:46:45.991Z,1018.75
2017-02-12T01:47:57.392Z,1018.78
2017-02-12T01:49:08.889Z,1018.69
2017-02-12T01:50:20.281Z,1018.69
2017-02-12T01:51:31.887Z,1018.67
2017-02-12T01:52:43.295Z,1018.66
2017-02-12T01:53:54.702Z,1018.64
2017-02-12T01:55:06.111Z,1018.63
2017-02-12T01:56:17.518Z,1018.64
2017-02-12T01:57:29.124Z,1018.64
2017-02-12T01:58:40.574Z,1018.64
2017-02-12T01:59:52.173Z,1018.62
2017-02-12T02:01:03.570Z,1018.6
2017-02-12T02:02:15.172Z,1018.59
2017-02-12T02:03:26.567Z,1018.57
2017-02-12T02:04:37.970Z,1018.59
2017-02-12T02:05:49.377Z,1018.63
2017-02-12T02:07:00.787Z,1018.69
2017-02-12T02:08:12.185Z,1018.78
2017-02-12T02:09:23.639Z,1018.75
2017-02-12T02:10:35.038Z,1018.81
2017-02-12T02:11:46.449Z,1018.78
2017-02-12T02:12:57.852Z,1018.82
2017-02-12T02:14:09.258Z,1018.86
2017-02-12T02:15:20.718Z,1018.79
2017-02-12T02:16:32.118Z,1018.82
2017-02-12T02:17:43.529Z,1018.85
2017-02-12T02:18:55.129Z,1018.9
2017-02-12T02:20:06.581Z,1018.83
2017-02-12T02:21:17.980Z,1018.83
2017-02-12T02:22:29.382Z,1018.83
2017-02-12T02:23:40.778Z,1018.85
2017-02-12T02:24:52.227Z,1018.84
2017-02-12T02:26:03.831Z,1018.91
2017-02-12T02:27:15.229Z,1018.9
2017-02-12T02:28:26.632Z,1018.92
2017-02-12T02:29:38.032Z,1018.93
2017-02-12T02:30:49.444Z,1018.92
2017-02-12T02:32:00.931Z,1018.95
2017-02-12T02:33:12.333Z,1018.97
2017-02-12T02:34:23.738Z,1018.94
2017-02-12T02:35:35.131Z,1018.88
2017-02-12T02:36:46.732Z,1018.86
2017-02-12T02:37:58.140Z,1018.84
2017-02-12T02:39:09.548Z,1018.83
2017-02-12T02:40:21.163Z,1018.93
2017-02-12T02:41:32.820Z,1018.94
2017-02-12T02:42:44.424Z,1018.96
2017-02-12T02:43:55.823Z,1018.95
2017-02-12T02:45:07.236Z,1018.95
2017-02-12T02:46:18.843Z,1018.98
2017-02-12T02:47:30.453Z,1018.94
2017-02-12T02:48:41.860Z,1018.95
2017-02-12T02:49:53.282Z,1018.97
2017-02-12T02:51:04.680Z,1018.97
2017-02-12T02:52:16.332Z,1018.97
2017-02-12T02:53:27.735Z,1018.97
2017-02-12T02:54:39.129Z,1018.97
2017-02-12T02:55:50.739Z,1019
2017-02-12T02:57:02.342Z,1019.01
2017-02-12T02:58:13.747Z,1018.98
2017-02-12T02:59:25.159Z,1018.99
2017-02-12T03:00:36.567Z,1019.07
2017-02-12T03:01:48.166Z,1019.11
2017-02-12T03:02:59.825Z,1019.16
2017-02-12T03:04:11.230Z,1019.17
2017-02-12T03:05:22.631Z,1019.16
2017-02-12T03:06:34.034Z,1019.14
2017-02-12T03:07:45.640Z,1019.12
2017-02-12T03:08:57.049Z,1019.09
2017-02-12T03:10:08.460Z,1019.13
2017-02-12T03:11:20.060Z,1019.12
2017-02-12T03:12:31.460Z,1019.11
2017-02-12T03:13:42.859Z,1019.17
2017-02-12T03:14:54.315Z,1019.11
2017-02-12T03:16:05.712Z,1019.08
2017-02-12T03:17:17.318Z,1019.13
2017-02-12T03:18:28.717Z,1019.17
2017-02-12T03:19:40.129Z,1019.21
2017-02-12T03:20:51.580Z,1019.21
2017-02-12T03:22:02.984Z,1019.21
2017-02-12T03:23:14.592Z,1019.21
2017-02-12T03:24:25.993Z,1019.19
2017-02-12T03:25:37.390Z,1019.24
2017-02-12T03:26:48.797Z,1019.23
2017-02-12T03:28:00.198Z,1019.25
2017-02-12T03:29:11.598Z,1019.23
2017-02-12T03:30:23.048Z,1019.17
2017-02-12T03:31:34.454Z,1019.14
2017-02-12T03:32:45.863Z,1019.12
2017-02-12T03:33:57.264Z,1019.12
2017-02-12T03:35:08.668Z,1019.11
2017-02-12T03:36:20.068Z,1019.13
2017-02-12T03:37:31.662Z,1019.14
2017-02-12T03:38:43.064Z,1019.22
2017-02-12T03:39:54.462Z,1019.25
2017-02-12T03:41:05.923Z,1019.26
2017-02-12T03:42:17.328Z,1019.27
2017-02-12T03:43:29.339Z,1019.33
2017-02-12T03:44:40.729Z,1019.29
2017-02-12T03:45:52.132Z,1019.29
2017-02-12T03:47:03.533Z,1019.31
2017-02-12T03:48:14.934Z,1019.28
2017-02-12T03:49:26.324Z,1019.22
2017-02-12T03:50:37.933Z,1019.26
2017-02-12T03:51:49.577Z,1019.27
2017-02-12T03:53:01.009Z,1019.28
2017-02-12T03:54:12.411Z,1019.33
2017-02-12T03:55:23.821Z,1019.33
2017-02-12T03:56:35.253Z,1019.34
2017-02-12T03:57:46.673Z,1019.36
2017-02-12T03:58:58.279Z,1019.35
2017-02-12T04:00:09.680Z,1019.32
2017-02-12T04:01:21.088Z,1019.36
2017-02-12T04:02:32.494Z,1019.42
2017-02-12T04:03:44.152Z,1019.4
2017-02-12T04:04:55.552Z,1019.47
2017-02-12T04:06:06.954Z,1019.5
2017-02-12T04:07:18.350Z,1019.54
2017-02-12T04:08:29.746Z,1019.63
2017-02-12T04:09:41.149Z,1019.63
2017-02-12T04:10:52.751Z,1019.63
2017-02-12T04:12:04.153Z,1019.66
2017-02-12T04:13:15.606Z,1019.66
2017-02-12T04:14:27.014Z,1019.64
2017-02-12T04:15:38.416Z,1019.65
2017-02-12T04:16:50.019Z,1019.68
2017-02-12T04:18:01.420Z,1019.68
2017-02-12T04:19:12.817Z,1019.7
2017-02-12T04:20:24.220Z,1019.72
2017-02-12T04:21:35.625Z,1019.65
2017-02-12T04:22:47.021Z,1019.73
2017-02-12T04:23:58.468Z,1019.64
2017-02-12T04:25:10.077Z,1019.63
2017-02-12T04:26:21.472Z,1019.61
2017-02-12T04:27:32.874Z,1019.63
2017-02-12T04:28:44.480Z,1019.65
2017-02-12T04:29:55.882Z,1019.64
2017-02-12T04:31:07.294Z,1019.63
2017-02-12T04:32:18.687Z,1019.59
2017-02-12T04:33:30.298Z,1019.61
2017-02-12T04:34:41.751Z,1019.6
2017-02-12T04:35:53.148Z,1019.61
2017-02-12T04:37:04.540Z,1019.66
2017-02-12T04:38:16.139Z,1019.72
2017-02-12T04:39:27.546Z,1019.68
2017-02-12T04:40:38.945Z,1019.69
2017-02-12T04:41:50.343Z,1019.73
2017-02-12T04:43:01.744Z,1019.75
2017-02-12T04:44:13.153Z,1019.73
2017-02-12T04:45:24.555Z,1019.71
2017-02-12T04:46:36.005Z,1019.73
2017-02-12T04:47:47.428Z,1019.73
2017-02-12T04:48:58.828Z,1019.75
2017-02-12T04:50:10.426Z,1019.76
2017-02-12T04:51:21.826Z,1019.79
2017-02-12T04:52:33.278Z,1019.81
2017-02-12T04:53:44.684Z,1019.83
2017-02-12T04:54:56.090Z,1019.82
2017-02-12T04:56:07.483Z,1019.91
2017-02-12T04:57:19.086Z,1019.96
2017-02-12T04:58:30.495Z,1019.98
2017-02-12T04:59:41.893Z,1019.99
2017-02-12T05:00:53.292Z,1020.03
2017-02-12T05:02:04.745Z,1020.05
2017-02-12T05:03:16.153Z,1020.06
2017-02-12T05:04:27.542Z,1020.09
2017-02-12T05:05:38.948Z,1020.1
2017-02-12T05:06:50.354Z,1020.12
2017-02-12T05:08:01.753Z,1020.07
2017-02-12T05:09:13.356Z,1020.09
2017-02-12T05:10:24.790Z,1020.09
2017-02-12T05:11:36.191Z,1020.1
2017-02-12T05:12:47.638Z,1020.1
2017-02-12T05:13:59.074Z,1020.08
2017-02-12T05:15:10.481Z,1020.17
2017-02-12T05:16:21.881Z,1020.1
2017-02-12T05:17:33.487Z,1020.12
2017-02-12T05:18:44.891Z,1020.09
2017-02-12T05:19:56.290Z,1020.11
2017-02-12T05:21:07.692Z,1020.08
2017-02-12T05:22:19.090Z,1020.04
2017-02-12T05:23:30.737Z,1020.04
2017-02-12T05:24:42.143Z,1020.06
2017-02-12T05:25:53.540Z,1020.06
2017-02-12T05:27:04.930Z,1020.03
2017-02-12T05:28:16.331Z,1020.04
2017-02-12T05:29:27.729Z,1020.04
2017-02-12T05:30:39.126Z,1020.06
2017-02-12T05:31:50.935Z,1020.03
2017-02-12T05:33:02.540Z,1020.09
2017-02-12T05:34:13.940Z,1020.06
2017-02-12T05:35:25.590Z,1020.14
2017-02-12T05:36:36.997Z,1020.15
2017-02-12T05:37:48.413Z,1020.22
2017-02-12T05:39:00.015Z,1020.23
2017-02-12T05:40:11.415Z,1020.2
2017-02-12T05:41:23.012Z,1020.3
2017-02-12T05:42:34.619Z,1020.41
2017-02-12T05:43:46.014Z,1020.47
2017-02-12T05:44:57.470Z,1020.56
2017-02-12T05:46:09.072Z,1020.59
2017-02-12T05:47:20.474Z,1020.63
2017-02-12T05:48:31.871Z,1020.67
2017-02-12T05:49:43.277Z,1020.66
2017-02-12T05:50:54.673Z,1020.65
2017-02-12T05:52:06.079Z,1020.64
2017-02-12T05:53:17.484Z,1020.71
2017-02-12T05:54:29.089Z,1020.74
2017-02-12T05:55:40.743Z,1020.72
2017-02-12T05:56:52.146Z,1020.79
2017-02-12T05:58:03.545Z,1020.87
2017-02-12T05:59:14.953Z,1020.85
2017-02-12T06:00:26.345Z,1020.87
2017-02-12T06:01:37.738Z,1020.8
2017-02-12T06:02:49.146Z,1020.78
2017-02-12T06:04:00.560Z,1020.75
2017-02-12T06:05:11.970Z,1020.79
2017-02-12T06:06:23.629Z,1020.88
2017-02-12T06:07:35.033Z,1020.9
2017-02-12T06:08:46.438Z,1020.86
2017-02-12T06:09:57.865Z,1020.88
2017-02-12T06:11:09.271Z,1020.99
2017-02-12T06:12:20.675Z,1020.95
2017-02-12T06:13:32.090Z,1020.91
2017-02-12T06:14:43.893Z,1020.94
2017-02-12T06:15:55.294Z,1020.97
2017-02-12T06:17:06.691Z,1020.99
2017-02-12T06:18:18.369Z,1020.91
2017-02-12T06:19:29.975Z,1020.93
2017-02-12T06:20:41.598Z,1020.9
2017-02-12T06:21:52.988Z,1020.85
2017-02-12T06:23:04.394Z,1020.81
2017-02-12T06:24:15.798Z,1020.75
2017-02-12T06:25:27.198Z,1020.74
2017-02-12T06:26:38.606Z,1020.71
2017-02-12T06:27:50.261Z,1020.64
2017-02-12T06:29:01.661Z,1020.59
2017-02-12T06:30:13.270Z,1020.61
2017-02-12T06:31:24.676Z,1020.66
2017-02-12T06:32:36.081Z,1020.74
2017-02-12T06:33:47.480Z,1020.7
2017-02-12T06:34:58.888Z,1020.75
2017-02-12T06:36:10.292Z,1020.87
2017-02-12T06:37:21.697Z,1020.93
2017-02-12T06:38:33.149Z,1020.97
2017-02-12T06:39:44.543Z,1020.99
2017-02-12T06:40:55.940Z,1021.03
2017-02-12T06:42:07.333Z,1021.03
2017-02-12T06:43:18.733Z,1020.95
2017-02-12T06:44:30.132Z,1020.95
2017-02-12T06:45:41.548Z,1020.99
2017-02-12T06:46:52.954Z,1021.07
2017-02-12T06:48:04.363Z,1021.02
2017-02-12T06:49:15.816Z,1021.04
2017-02-12T06:50:27.213Z,1021.01
2017-02-12T06:51:38.618Z,1021.08
2017-02-12T06:52:50.023Z,1021.09
2017-02-12T06:54:01.426Z,1021.15
2017-02-12T06:55:12.824Z,1021.24
2017-02-12T06:56:24.228Z,1021.26
2017-02-12T06:57:35.822Z,1021.21
2017-02-12T06:58:47.225Z,1021.27
2017-02-12T06:59:58.624Z,1021.31
2017-02-12T07:01:10.043Z,1021.33
2017-02-12T07:02:21.454Z,1021.35
2017-02-12T07:03:33.064Z,1021.38
2017-02-12T07:04:44.466Z,1021.38
2017-02-12T07:05:55.867Z,1021.35
2017-02-12T07:07:07.523Z,1021.34
2017-02-12T07:08:19.119Z,1021.38
2017-02-12T07:09:30.556Z,1021.35
2017-02-12T07:10:41.960Z,1021.4
2017-02-12T07:11:53.368Z,1021.37
2017-02-12T07:13:04.770Z,1021.36
2017-02-12T07:14:16.374Z,1021.33
2017-02-12T07:15:27.771Z,1021.31
2017-02-12T07:16:39.422Z,1021.25
2017-02-12T07:17:50.821Z,1021.31
2017-02-12T07:19:02.437Z,1021.31
2017-02-12T07:20:14.047Z,1021.32
2017-02-12T07:21:25.448Z,1021.42
2017-02-12T07:22:36.850Z,1021.44
2017-02-12T07:23:48.260Z,1021.47
2017-02-12T07:25:00.060Z,1021.5
2017-02-12T07:26:11.467Z,1021.58
2017-02-12T07:27:22.912Z,1021.54
2017-02-12T07:28:34.312Z,1021.62
2017-02-12T07:29:45.713Z,1021.63
2017-02-12T07:30:57.113Z,1021.65
2017-02-12T07:32:08.925Z,1021.61
2017-02-12T07:33:20.356Z,1021.67
2017-02-12T07:34:31.764Z,1021.64
2017-02-12T07:35:43.178Z,1021.71
2017-02-12T07:36:54.782Z,1021.68
2017-02-12T07:38:06.199Z,1021.74
2017-02-12T07:39:17.607Z,1021.79
2017-02-12T07:40:29.007Z,1021.82
2017-02-12T07:41:40.418Z,1021.81
2017-02-12T07:42:52.057Z,1021.94
2017-02-12T07:44:03.461Z,1021.96
2017-02-12T07:45:14.866Z,1021.89
2017-02-12T07:46:26.276Z,1021.91
2017-02-12T07:47:38.100Z,1021.95
2017-02-12T07:48:49.500Z,1021.91
2017-02-12T07:50:01.210Z,1022
2017-02-12T07:51:13.016Z,1022.03
2017-02-12T07:52:24.423Z,1022.07
2017-02-12T07:53:36.029Z,1022.1
2017-02-12T07:54:47.639Z,1022.1
2017-02-12T07:55:59.041Z,1022.15
2017-02-12T07:57:10.668Z,1022.16
2017-02-12T07:58:22.090Z,1022.14
2017-02-12T07:59:33.753Z,1022.17
2017-02-12T08:00:45.158Z,1022.15
2017-02-12T08:01:56.758Z,1022.11
2017-02-12T08:03:08.155Z,1022.04
2017-02-12T08:04:19.565Z,1022.13
2017-02-12T08:05:31.172Z,1022.13
2017-02-12T08:06:42.781Z,1022.08
2017-02-12T08:07:54.179Z,1022.1
2017-02-12T08:09:05.595Z,1022.09
2017-02-12T08:10:17.051Z,1022.15
2017-02-12T08:11:28.445Z,1022.18
2017-02-12T08:12:40.253Z,1022.22
2017-02-12T08:13:52.058Z,1022.36
2017-02-12T08:15:03.462Z,1022.32
2017-02-12T08:16:14.896Z,1022.47
2017-02-12T08:17:26.496Z,1022.43
2017-02-12T08:18:37.897Z,1022.41
2017-02-12T08:19:49.302Z,1022.36
2017-02-12T08:21:00.753Z,1022.39
2017-02-12T08:22:12.149Z,1022.38
2017-02-12T08:23:23.560Z,1022.38
2017-02-12T08:24:34.959Z,1022.51
2017-02-12T08:25:46.351Z,1022.41
2017-02-12T08:26:57.794Z,1022.45
2017-02-12T08:28:09.201Z,1022.36
2017-02-12T08:29:20.602Z,1022.51
2017-02-12T08:30:32.212Z,1022.47
2017-02-12T08:31:43.829Z,1022.5
2017-02-12T08:32:55.293Z,1022.52
2017-02-12T08:34:06.697Z,1022.57
2017-02-12T08:35:18.310Z,1022.55
2017-02-12T08:36:29.725Z,1022.58
2017-02-12T08:37:41.325Z,1022.6
2017-02-12T08:38:52.732Z,1022.57
2017-02-12T08:40:04.139Z,1022.6
2017-02-12T08:41:15.546Z,1022.65
2017-02-12T08:42:27.003Z,1022.64
2017-02-12T08:43:38.413Z,1022.63
2017-02-12T08:44:49.816Z,1022.68
2017-02-12T08:46:01.428Z,1022.63
2017-02-12T08:47:12.837Z,1022.7
2017-02-12T08:48:24.441Z,1022.76
2017-02-12T08:49:36.048Z,1022.71
2017-02-12T08:50:47.457Z,1022.71
2017-02-12T08:51:58.863Z,1022.76
2017-02-12T08:53:10.521Z,1022.74
2017-02-12T08:54:21.923Z,1022.77
2017-02-12T08:55:33.524Z,1022.85
2017-02-12T08:56:44.928Z,1022.86
2017-02-12T08:57:56.320Z,1022.86
2017-02-12T08:59:07.724Z,1022.92
2017-02-12T09:00:19.135Z,1022.87
2017-02-12T09:01:30.539Z,1022.86
2017-02-12T09:02:41.942Z,1022.93
2017-02-12T09:03:53.800Z,1022.99
2017-02-12T09:05:05.404Z,1022.99
2017-02-12T09:06:16.801Z,1023
2017-02-12T09:07:28.410Z,1022.91
2017-02-12T09:08:39.816Z,1022.99
2017-02-12T09:09:51.429Z,1022.88
2017-02-12T09:11:02.886Z,1023.03
2017-02-12T09:12:14.502Z,1023
2017-02-12T09:13:26.101Z,1022.96
2017-02-12T09:14:37.701Z,1023.02
2017-02-12T09:15:49.355Z,1023.03
2017-02-12T09:17:00.759Z,1023.03
2017-02-12T09:18:12.163Z,1023.09
2017-02-12T09:19:23.575Z,1023.12
2017-02-12T09:20:34.981Z,1023.25
2017-02-12T09:21:46.388Z,1023.18
2017-02-12T09:22:57.795Z,1023.19
2017-02-12T09:24:09.233Z,1023.22
2017-02-12T09:25:20.689Z,1023.19
2017-02-12T09:26:32.098Z,1023.23
2017-02-12T09:27:43.505Z,1023.24
2017-02-12T09:28:54.911Z,1023.28
2017-02-12T09:30:06.315Z,1023.25
2017-02-12T09:31:17.717Z,1023.26
2017-02-12T09:32:29.324Z,1023.26
2017-02-12T09:33:40.730Z,1023.31
2017-02-12T09:34:52.141Z,1023.3
2017-02-12T09:36:03.593Z,1023.33
2017-02-12T09:37:15.234Z,1023.29
2017-02-12T09:38:26.646Z,1023.37
2017-02-12T09:39:38.249Z,1023.39
2017-02-12T09:40:49.664Z,1023.24
2017-02-12T09:42:01.074Z,1023.29
2017-02-12T09:43:12.471Z,1023.28
2017-02-12T09:44:24.078Z,1023.36
2017-02-12T09:45:35.486Z,1023.36
2017-02-12T09:46:46.943Z,1023.55
2017-02-12T09:47:58.339Z,1023.49
2017-02-12T09:49:09.740Z,1023.49
2017-02-12T09:50:21.348Z,1023.45
2017-02-12T09:51:32.762Z,1023.52
2017-02-12T09:52:44.371Z,1023.42
2017-02-12T09:53:55.774Z,1023.43
2017-02-12T09:55:07.181Z,1023.43
2017-02-12T09:56:18.794Z,1023.49
2017-02-12T09:57:30.403Z,1023.51
2017-02-12T09:58:41.856Z,1023.6
2017-02-12T09:59:53.262Z,1023.63
2017-02-12T10:01:04.668Z,1023.63
2017-02-12T10:02:16.074Z,1023.57
2017-02-12T10:03:27.472Z,1023.53
2017-02-12T10:04:38.881Z,1023.55
2017-02-12T10:05:50.289Z,1023.56
2017-02-12T10:07:01.692Z,1023.56
2017-02-12T10:08:13.355Z,1023.61
2017-02-12T10:09:24.761Z,1023.66
2017-02-12T10:10:36.366Z,1023.68
2017-02-12T10:11:47.781Z,1023.66
2017-02-12T10:12:59.197Z,1023.66
2017-02-12T10:14:10.603Z,1023.67
2017-02-12T10:15:22.005Z,1023.79
2017-02-12T10:16:33.427Z,1023.73
2017-02-12T10:17:44.841Z,1023.79
2017-02-12T10:18:56.298Z,1023.76
2017-02-12T10:20:07.706Z,1023.83
2017-02-12T10:21:19.318Z,1023.83
2017-02-12T10:22:30.725Z,1023.86
2017-02-12T10:23:42.341Z,1023.89
2017-02-12T10:24:53.805Z,1023.91
2017-02-12T10:26:05.213Z,1023.95
2017-02-12T10:27:16.620Z,1023.94
2017-02-12T10:28:28.032Z,1023.99
2017-02-12T10:29:39.493Z,1024.03
2017-02-12T10:30:50.897Z,1024.03
2017-02-12T10:32:02.310Z,1024.07
2017-02-12T10:33:13.753Z,1024.05
2017-02-12T10:34:25.364Z,1023.99
2017-02-12T10:35:36.769Z,1024.04
2017-02-12T10:36:48.180Z,1024.08
2017-02-12T10:37:59.590Z,1024.1
2017-02-12T10:39:11.001Z,1024.11
2017-02-12T10:40:22.413Z,1024.06
2017-02-12T10:41:33.874Z,1024.07
2017-02-12T10:42:45.282Z,1024.12
2017-02-12T10:43:56.691Z,1024.09
2017-02-12T10:45:08.096Z,1024.11
2017-02-12T10:46:19.512Z,1024.1
2017-02-12T10:47:30.921Z,1024.11
2017-02-12T10:48:42.534Z,1024.16
2017-02-12T10:49:53.943Z,1024.14
2017-02-12T10:51:05.804Z,1024.14
2017-02-12T10:52:17.217Z,1024.12
2017-02-12T10:53:28.636Z,1024.15
2017-02-12T10:54:40.058Z,1024.09
2017-02-12T10:55:51.466Z,1024.21
2017-02-12T10:57:02.882Z,1024.3
2017-02-12T10:58:14.290Z,1024.15
2017-02-12T10:59:25.895Z,1024.18
2017-02-12T11:00:37.504Z,1024.24
2017-02-12T11:01:49.165Z,1024.17
2017-02-12T11:03:00.782Z,1024.11
2017-02-12T11:04:12.193Z,1024.1
2017-02-12T11:05:23.603Z,1024.16
2017-02-12T11:06:35.017Z,1024.12
2017-02-12T11:07:46.634Z,1024.16
2017-02-12T11:08:58.046Z,1024.16
2017-02-12T11:10:09.487Z,1024.16
2017-02-12T11:11:20.897Z,1024.21
2017-02-12T11:12:32.369Z,1024.2
2017-02-12T11:13:43.980Z,1024.21
2017-02-12T11:14:55.395Z,1024.25
2017-02-12T11:16:06.799Z,1024.26
2017-02-12T11:17:18.213Z,1024.23
2017-02-12T11:18:29.620Z,1024.18
2017-02-12T11:19:41.041Z,1024.26
2017-02-12T11:20:52.455Z,1024.22
2017-02-12T11:22:03.870Z,1024.16
2017-02-12T11:23:15.279Z,1024.23
2017-02-12T11:24:26.732Z,1024.26
2017-02-12T11:25:38.344Z,1024.19
2017-02-12T11:26:49.766Z,1024.16
2017-02-12T11:28:01.181Z,1024.18
2017-02-12T11:29:12.795Z,1024.19
2017-02-12T11:30:24.226Z,1024.23
2017-02-12T11:31:35.636Z,1024.31
2017-02-12T11:32:47.054Z,1024.26
2017-02-12T11:33:58.518Z,1024.44
2017-02-12T11:35:09.930Z,1024.47
2017-02-12T11:36:21.541Z,1024.5
2017-02-12T11:37:32.952Z,1024.46
2017-02-12T11:38:44.363Z,1024.44
2017-02-12T11:39:55.970Z,1024.36
2017-02-12T11:41:07.382Z,1024.26
2017-02-12T11:42:18.803Z,1024.27
2017-02-12T11:43:30.213Z,1024.27
2017-02-12T11:44:41.674Z,1024.22
2017-02-12T11:45:53.086Z,1024.15
2017-02-12T11:47:04.902Z,1024.2
2017-02-12T11:48:16.314Z,1024.14
2017-02-12T11:49:27.772Z,1024.1
2017-02-12T11:50:39.224Z,1024.17
2017-02-12T11:51:50.846Z,1024.07
2017-02-12T11:53:02.262Z,1024.08
2017-02-12T11:54:13.874Z,1024.09
2017-02-12T11:55:25.567Z,1024.08
2017-02-12T11:56:36.988Z,1024.1
2017-02-12T11:57:48.410Z,1024.17
2017-02-12T11:58:59.825Z,1024.14
2017-02-12T12:00:11.231Z,1024.13
2017-02-12T12:01:22.851Z,1024.17
2017-02-12T12:02:34.471Z,1024.19
2017-02-12T12:03:45.879Z,1024.12
2017-02-12T12:04:57.295Z,1024.13
2017-02-12T12:06:08.703Z,1024.17
2017-02-12T12:07:20.165Z,1024.24
2017-02-12T12:08:31.588Z,1024.14
2017-02-12T12:09:42.998Z,1024.17
2017-02-12T12:10:54.611Z,1024.21
2017-02-12T12:12:06.026Z,1024.19
2017-02-12T12:13:17.428Z,1024.18
2017-02-12T12:14:28.839Z,1024.12
2017-02-12T12:15:40.246Z,1024.05
2017-02-12T12:16:51.909Z,1024.05
2017-02-12T12:18:03.334Z,1023.99
2017-02-12T12:19:14.936Z,1024.01
2017-02-12T12:20:26.353Z,1023.99
2017-02-12T12:21:37.760Z,1024.03
2017-02-12T12:22:49.253Z,1023.98
2017-02-12T12:24:00.861Z,1024
2017-02-12T12:25:12.273Z,1024.04
2017-02-12T12:26:23.720Z,1024.07
2017-02-12T12:27:35.392Z,1024
2017-02-12T12:28:46.796Z,1024.09
2017-02-12T12:29:58.213Z,1024.09
2017-02-12T12:31:09.654Z,1024.11
2017-02-12T12:32:21.258Z,1024.13
2017-02-12T12:33:32.666Z,1024.11
2017-02-12T12:34:44.074Z,1024.1
2017-02-12T12:35:55.484Z,1024.16
2017-02-12T12:37:07.095Z,1024.13
2017-02-12T12:38:18.555Z,1024.19
2017-02-12T12:39:30.177Z,1024.17
2017-02-12T12:40:41.630Z,1024.15
2017-02-12T12:41:53.242Z,1024.17
2017-02-12T12:43:04.655Z,1024.12
2017-02-12T12:44:16.080Z,1024.14
2017-02-12T12:45:27.495Z,1024.2
2017-02-12T12:46:38.910Z,1024.23
2017-02-12T12:47:50.318Z,1024.27
2017-02-12T12:49:01.727Z,1024.23
2017-02-12T12:50:13.186Z,1024.24
2017-02-12T12:51:24.602Z,1024.25
2017-02-12T12:52:36.018Z,1024.18
2017-02-12T12:53:47.428Z,1024.18
2017-02-12T12:54:58.836Z,1024.26
2017-02-12T12:56:10.242Z,1024.24
2017-02-12T12:57:21.645Z,1024.19
2017-02-12T12:58:33.449Z,1024.27
2017-02-12T12:59:44.908Z,1024.14
2017-02-12T13:00:56.320Z,1024.18
2017-02-12T13:02:07.731Z,1024.18
2017-02-12T13:03:19.337Z,1024.17
2017-02-12T13:04:30.744Z,1024.18
2017-02-12T13:05:42.162Z,1024.13
2017-02-12T13:06:53.583Z,1024.21
2017-02-12T13:08:04.994Z,1024.13
2017-02-12T13:09:16.805Z,1024.14
2017-02-12T13:10:28.259Z,1024.1
2017-02-12T13:11:39.675Z,1024.04
2017-02-12T13:12:51.099Z,1024.05
2017-02-12T13:14:02.504Z,1024.05
2017-02-12T13:15:13.915Z,1024.03
2017-02-12T13:16:25.319Z,1024.02
2017-02-12T13:17:36.736Z,1023.94
2017-02-12T13:18:48.158Z,1023.9
2017-02-12T13:19:59.574Z,1023.96
2017-02-12T13:21:11.023Z,1023.89
2017-02-12T13:22:22.433Z,1023.93
2017-02-12T13:23:33.840Z,1023.9
2017-02-12T13:24:45.256Z,1023.94
2017-02-12T13:25:56.860Z,1023.91
2017-02-12T13:27:08.270Z,1023.9
2017-02-12T13:28:19.882Z,1023.93
2017-02-12T13:29:31.302Z,1023.92
2017-02-12T13:30:42.709Z,1023.94
2017-02-12T13:31:54.130Z,1023.95
2017-02-12T13:33:05.605Z,1023.92
2017-02-12T13:34:17.015Z,1023.92
2017-02-12T13:35:28.424Z,1023.93
2017-02-12T13:36:39.824Z,1023.95
2017-02-12T13:37:51.429Z,1023.96
2017-02-12T13:39:02.838Z,1023.91
2017-02-12T13:40:14.244Z,1023.88
2017-02-12T13:41:25.661Z,1023.84
2017-02-12T13:42:37.121Z,1023.79
2017-02-12T13:43:48.534Z,1023.83
2017-02-12T13:44:59.946Z,1023.84
2017-02-12T13:46:11.348Z,1023.88
2017-02-12T13:47:22.753Z,1023.91
2017-02-12T13:48:34.162Z,1023.84
2017-02-12T13:49:45.563Z,1023.85
2017-02-12T13:50:56.965Z,1023.82
2017-02-12T13:52:08.584Z,1023.76
2017-02-12T13:53:20.049Z,1023.83
2017-02-12T13:54:31.455Z,1023.82
2017-02-12T13:55:42.866Z,1023.88
2017-02-12T13:56:54.272Z,1023.81
2017-02-12T13:58:05.683Z,1023.84
2017-02-12T13:59:17.097Z,1023.85
2017-02-12T14:00:28.496Z,1023.79
2017-02-12T14:01:40.107Z,1023.78
2017-02-12T14:02:51.716Z,1023.82
2017-02-12T14:04:03.379Z,1023.79
2017-02-12T14:05:14.795Z,1023.82
2017-02-12T14:06:26.204Z,1023.83
2017-02-12T14:07:37.811Z,1023.86
2017-02-12T14:08:49.221Z,1023.88
2017-02-12T14:10:00.684Z,1023.84
2017-02-12T14:11:12.106Z,1023.9
2017-02-12T14:12:23.512Z,1023.9
2017-02-12T14:13:35.321Z,1023.96
2017-02-12T14:14:46.720Z,1023.92
2017-02-12T14:15:58.329Z,1023.89
2017-02-12T14:17:09.940Z,1023.95
2017-02-12T14:18:21.347Z,1023.96
2017-02-12T14:19:32.761Z,1023.93
2017-02-12T14:20:44.367Z,1024.02
2017-02-12T14:21:55.826Z,1024.01
2017-02-12T14:23:07.227Z,1023.99
2017-02-12T14:24:18.644Z,1024.01
2017-02-12T14:25:30.051Z,1023.99
2017-02-12T14:26:41.647Z,1023.99